Time,TemperatureF,DewpointF,PressureIn,WindDirection,WindDirectionDegrees,WindSpeedMPH,WindSpeedGustMPH,Humidity,HourlyPrecipIn,Conditions,Clouds,dailyrainin,SoftwareType,DateUTC
2013-04-18 00:01:00,44.5,41.2,30.33,ESE,106,0.0,0.0,88,0.00,,CLR,0.01,VWS V14.01,2013-04-18 04:01:00,
2013-04-18 00:06:00,44.2,40.9,30.33,ESE,106,0.0,0.0,88,0.00,,CLR,0.00,VWS V14.01,2013-04-18 04:06:00,
2013-04-18 00:11:00,43.9,40.9,30.33,ESE,106,0.0,0.0,89,0.00,,CLR,0.00,VWS V14.01,2013-04-18 04:11:00,
2013-04-18 00:16:00,43.8,40.8,30.34,ESE,106,0.0,1.0,89,0.00,,CLR,0.00,VWS V14.01,2013-04-18 04:16:00,
2013-04-18 00:21:00,43.9,40.9,30.34,ESE,106,0.0,0.0,89,0.00,,CLR,0.00,VWS V14.01,2013-04-18 04:21:00,
2013-04-18 00:26:00,43.8,40.8,30.34,ESE,106,0.0,0.0,89,0.00,,CLR,0.00,VWS V14.01,2013-04-18 04:26:00,
2013-04-18 00:31:00,43.7,40.7,30.35,ESE,106,0.0,0.0,89,0.00,,CLR,0.00,VWS V14.01,2013-04-18 04:31:00,
2013-04-18 00:36:00,43.5,40.5,30.35,ESE,106,0.0,0.0,89,0.00,,CLR,0.00,VWS V14.01,2013-04-18 04:36:00,
2013-04-18 00:41:00,43.2,40.2,30.35,ESE,106,0.0,0.0,89,0.00,,CLR,0.00,VWS V14.01,2013-04-18 04:41:00,
2013-04-18 00:46:00,43.1,40.1,30.35,ESE,106,0.0,0.0,89,0.00,,CLR,0.00,VWS V14.01,2013-04-18 04:46:00,
2013-04-18 00:51:00,42.9,40.2,30.35,ESE,106,0.0,0.0,90,0.00,,CLR,0.00,VWS V14.01,2013-04-18 04:51:00,
2013-04-18 00:56:00,42.9,40.2,30.36,ESE,106,0.0,0.0,90,0.00,,CLR,0.00,VWS V14.01,2013-04-18 04:56:00,
2013-04-18 01:01:00,42.8,40.1,30.36,ESE,106,0.0,0.0,90,0.00,,CLR,0.00,VWS V14.01,2013-04-18 05:01:00,
2013-04-18 01:07:00,42.6,40.2,30.36,ESE,106,0.0,0.0,91,0.00,,CLR,0.00,VWS V14.01,2013-04-18 05:07:00,
2013-04-18 01:12:00,42.5,40.1,30.36,ESE,106,0.0,0.0,91,0.00,,CLR,0.00,VWS V14.01,2013-04-18 05:12:00,
2013-04-18 01:17:00,42.5,40.1,30.35,ESE,106,0.0,0.0,91,0.00,,CLR,0.00,VWS V14.01,2013-04-18 05:17:00,
2013-04-18 01:22:00,42.4,40.0,30.36,ESE,106,0.0,0.0,91,0.00,,CLR,0.00,VWS V14.01,2013-04-18 05:22:00,
2013-04-18 01:27:00,42.4,40.2,30.35,ESE,106,0.0,0.0,92,0.00,,CLR,0.00,VWS V14.01,2013-04-18 05:27:00,
2013-04-18 01:31:00,42.4,40.2,30.36,ESE,106,0.0,0.0,92,0.00,,CLR,0.00,VWS V14.01,2013-04-18 05:31:00,
2013-04-18 01:36:00,42.2,40.0,30.35,ESE,106,0.0,0.0,92,0.00,,CLR,0.00,VWS V14.01,2013-04-18 05:36:00,
2013-04-18 01:41:00,42.1,40.0,30.35,ESE,106,0.0,0.0,92,0.00,,CLR,0.00,VWS V14.01,2013-04-18 05:41:00,
2013-04-18 01:46:00,42.0,39.8,30.35,ESE,106,0.0,0.0,92,0.00,,CLR,0.00,VWS V14.01,2013-04-18 05:46:00,
2013-04-18 01:51:00,42.0,39.8,30.34,ESE,105,0.0,1.0,92,0.00,,CLR,0.00,VWS V14.01,2013-04-18 05:51:00,
2013-04-18 01:56:00,42.0,39.8,30.34,ESE,105,0.0,0.0,92,0.00,,CLR,0.00,VWS V14.01,2013-04-18 05:56:00,
2013-04-18 02:01:00,41.8,39.7,30.35,ESE,105,0.0,0.0,92,0.00,,CLR,0.00,VWS V14.01,2013-04-18 06:01:00,
2013-04-18 02:06:00,41.7,39.5,30.34,ESE,105,0.0,0.0,92,0.00,,CLR,0.00,VWS V14.01,2013-04-18 06:06:00,
2013-04-18 02:11:00,41.5,39.3,30.34,ESE,105,0.0,0.0,92,0.00,,CLR,0.00,VWS V14.01,2013-04-18 06:11:00,
2013-04-18 02:16:00,41.5,39.6,30.34,ESE,105,0.0,0.0,93,0.00,,CLR,0.00,VWS V14.01,2013-04-18 06:16:00,
2013-04-18 02:21:00,41.4,39.2,30.34,ESE,105,0.0,0.0,92,0.00,,CLR,0.00,VWS V14.01,2013-04-18 06:21:00,
2013-04-18 02:26:00,41.4,39.2,30.34,ESE,105,0.0,0.0,92,0.00,,CLR,0.00,VWS V14.01,2013-04-18 06:26:00,
2013-04-18 02:31:00,41.5,39.6,30.33,ESE,105,0.0,0.0,93,0.00,,CLR,0.00,VWS V14.01,2013-04-18 06:31:00,
2013-04-18 02:36:00,41.5,39.3,30.33,ESE,105,0.0,0.0,92,0.00,,CLR,0.00,VWS V14.01,2013-04-18 06:36:00,
2013-04-18 02:41:00,41.6,39.5,30.33,ESE,105,0.0,3.0,92,0.00,,CLR,0.00,VWS V14.01,2013-04-18 06:41:00,
2013-04-18 02:46:00,41.7,39.5,30.33,ESE,105,0.0,0.0,92,0.00,,CLR,0.00,VWS V14.01,2013-04-18 06:46:00,
2013-04-18 02:51:00,41.5,39.3,30.34,ESE,105,0.0,0.0,92,0.00,,CLR,0.00,VWS V14.01,2013-04-18 06:51:00,
2013-04-18 02:56:00,41.7,39.8,30.34,East,98,0.0,0.0,93,0.00,,CLR,0.00,VWS V14.01,2013-04-18 06:56:00,
2013-04-18 03:01:00,41.7,39.5,30.34,East,98,0.0,0.0,92,0.00,,CLR,0.00,VWS V14.01,2013-04-18 07:01:00,
2013-04-18 03:06:00,41.4,39.2,30.35,East,98,0.0,0.0,92,0.00,,CLR,0.00,VWS V14.01,2013-04-18 07:06:00,
2013-04-18 03:11:00,41.4,39.2,30.35,East,98,0.0,0.0,92,0.00,,CLR,0.00,VWS V14.01,2013-04-18 07:11:00,
2013-04-18 03:16:00,41.4,39.2,30.35,East,98,0.0,0.0,92,0.00,,CLR,0.00,VWS V14.01,2013-04-18 07:16:00,
2013-04-18 03:21:00,41.2,39.1,30.36,East,98,0.0,0.0,92,0.00,,CLR,0.00,VWS V14.01,2013-04-18 07:21:00,
2013-04-18 03:26:00,41.2,39.3,30.36,East,98,0.0,0.0,93,0.00,,CLR,0.00,VWS V14.01,2013-04-18 07:26:00,
2013-04-18 03:31:00,41.1,39.5,30.36,East,98,0.0,0.0,94,0.00,,CLR,0.00,VWS V14.01,2013-04-18 07:31:00,
2013-04-18 03:36:00,41.0,39.4,30.37,East,98,0.0,0.0,94,0.00,,CLR,0.00,VWS V14.01,2013-04-18 07:36:00,
2013-04-18 03:41:00,41.0,39.7,30.37,East,98,0.0,0.0,95,0.00,,CLR,0.00,VWS V14.01,2013-04-18 07:41:00,
2013-04-18 03:47:00,40.9,39.6,30.37,East,98,0.0,0.0,95,0.00,,CLR,0.00,VWS V14.01,2013-04-18 07:47:00,
2013-04-18 03:52:00,40.9,39.6,30.37,East,98,0.0,0.0,95,0.00,,CLR,0.00,VWS V14.01,2013-04-18 07:52:00,
2013-04-18 03:57:00,40.9,39.3,30.37,East,98,0.0,0.0,94,0.00,,CLR,0.00,VWS V14.01,2013-04-18 07:57:00,
2013-04-18 04:02:00,40.8,39.2,30.37,East,98,0.0,0.0,94,0.00,,CLR,0.00,VWS V14.01,2013-04-18 08:02:00,
2013-04-18 04:07:00,40.8,39.2,30.37,East,98,0.0,0.0,94,0.00,,CLR,0.00,VWS V14.01,2013-04-18 08:07:00,
2013-04-18 04:12:00,40.7,39.1,30.37,East,98,0.0,0.0,94,0.00,,CLR,0.00,VWS V14.01,2013-04-18 08:12:00,
2013-04-18 04:17:00,40.8,39.2,30.36,East,98,0.0,0.0,94,0.00,,CLR,0.00,VWS V14.01,2013-04-18 08:17:00,
2013-04-18 04:22:00,40.7,39.1,30.36,East,98,0.0,0.0,94,0.00,,CLR,0.00,VWS V14.01,2013-04-18 08:22:00,
2013-04-18 04:27:00,40.5,38.9,30.36,East,98,0.0,0.0,94,0.00,,CLR,0.00,VWS V14.01,2013-04-18 08:27:00,
2013-04-18 04:32:00,40.3,38.4,30.36,East,98,0.0,0.0,93,0.00,,CLR,0.00,VWS V14.01,2013-04-18 08:32:00,
2013-04-18 04:37:00,40.3,38.7,30.36,East,98,0.0,0.0,94,0.00,,CLR,0.00,VWS V14.01,2013-04-18 08:37:00,
2013-04-18 04:42:00,40.3,38.7,30.36,East,98,0.0,0.0,94,0.00,,CLR,0.00,VWS V14.01,2013-04-18 08:42:00,
2013-04-18 04:47:00,40.4,38.8,30.36,East,98,0.0,0.0,94,0.00,,CLR,0.00,VWS V14.01,2013-04-18 08:47:00,
2013-04-18 04:52:00,40.4,38.8,30.36,East,98,0.0,0.0,94,0.00,,CLR,0.00,VWS V14.01,2013-04-18 08:52:00,
2013-04-18 04:57:00,40.4,38.8,30.36,East,98,0.0,0.0,94,0.00,,CLR,0.00,VWS V14.01,2013-04-18 08:57:00,
2013-04-18 05:02:00,40.4,38.8,30.36,East,98,0.0,0.0,94,0.00,,CLR,0.00,VWS V14.01,2013-04-18 09:02:00,
2013-04-18 05:07:00,40.4,38.5,30.37,East,98,0.0,0.0,93,0.00,,CLR,0.00,VWS V14.01,2013-04-18 09:07:00,
2013-04-18 05:12:00,40.4,38.5,30.37,East,98,0.0,0.0,93,0.00,,CLR,0.00,VWS V14.01,2013-04-18 09:12:00,
2013-04-18 05:17:00,40.4,38.5,30.37,East,98,0.0,0.0,93,0.00,,CLR,0.00,VWS V14.01,2013-04-18 09:17:00,
2013-04-18 05:22:00,40.4,38.5,30.37,East,98,0.0,0.0,93,0.00,,CLR,0.00,VWS V14.01,2013-04-18 09:22:00,
2013-04-18 05:27:00,40.4,38.5,30.37,East,98,0.0,0.0,93,0.00,,CLR,0.00,VWS V14.01,2013-04-18 09:27:00,
2013-04-18 05:32:00,40.4,38.5,30.37,East,99,0.0,0.0,93,0.00,,CLR,0.00,VWS V14.01,2013-04-18 09:32:00,
2013-04-18 05:37:00,40.4,38.3,30.37,East,98,0.0,0.0,92,0.00,,CLR,0.00,VWS V14.01,2013-04-18 09:37:00,
2013-04-18 05:42:00,40.4,38.3,30.37,East,99,0.0,0.0,92,0.00,,CLR,0.00,VWS V14.01,2013-04-18 09:42:00,
2013-04-18 05:47:00,40.4,38.3,30.36,East,99,0.0,0.0,92,0.00,,CLR,0.00,VWS V14.01,2013-04-18 09:47:00,
2013-04-18 05:52:00,40.4,38.3,30.37,East,98,0.0,0.0,92,0.00,,CLR,0.00,VWS V14.01,2013-04-18 09:52:00,
2013-04-18 05:57:00,40.4,38.3,30.36,East,99,0.0,0.0,92,0.00,,CLR,0.00,VWS V14.01,2013-04-18 09:57:00,
2013-04-18 06:02:00,40.4,38.3,30.36,East,98,0.0,0.0,92,0.00,,CLR,0.00,VWS V14.01,2013-04-18 10:02:00,
2013-04-18 06:06:00,40.2,38.1,30.36,East,98,0.0,0.0,92,0.00,,CLR,0.00,VWS V14.01,2013-04-18 10:06:00,
2013-04-18 06:11:00,40.3,37.9,30.36,East,98,0.0,0.0,91,0.00,,CLR,0.00,VWS V14.01,2013-04-18 10:11:00,
2013-04-18 06:16:00,40.1,38.0,30.36,East,98,0.0,0.0,92,0.00,,CLR,0.00,VWS V14.01,2013-04-18 10:16:00,
2013-04-18 06:21:00,40.1,38.0,30.36,East,98,0.0,0.0,92,0.00,,CLR,0.00,VWS V14.01,2013-04-18 10:21:00,
2013-04-18 06:26:00,40.0,37.9,30.36,East,98,0.0,1.0,92,0.00,,CLR,0.00,VWS V14.01,2013-04-18 10:26:00,
2013-04-18 06:32:00,40.0,37.9,30.36,East,98,0.0,0.0,92,0.00,,CLR,0.00,VWS V14.01,2013-04-18 10:32:00,
2013-04-18 06:36:00,40.1,38.0,30.37,East,98,0.0,0.0,92,0.00,,CLR,0.00,VWS V14.01,2013-04-18 10:36:00,
2013-04-18 06:41:00,40.3,38.2,30.37,East,98,0.0,0.0,92,0.00,,CLR,0.00,VWS V14.01,2013-04-18 10:41:00,
2013-04-18 06:46:00,40.6,38.5,30.38,East,98,0.0,0.0,92,0.00,,CLR,0.00,VWS V14.01,2013-04-18 10:46:00,
2013-04-18 06:51:00,40.7,38.3,30.38,East,98,0.0,0.0,91,0.00,,CLR,0.00,VWS V14.01,2013-04-18 10:51:00,
2013-04-18 06:56:00,41.0,38.3,30.38,East,98,0.0,0.0,90,0.00,,CLR,0.00,VWS V14.01,2013-04-18 10:56:00,
2013-04-18 07:01:00,41.4,38.7,30.38,East,98,0.0,0.0,90,0.00,,CLR,0.00,VWS V14.01,2013-04-18 11:01:00,
2013-04-18 07:07:00,42.0,39.0,30.38,ESE,105,0.0,5.0,89,0.00,,CLR,0.00,VWS V14.01,2013-04-18 11:07:00,
2013-04-18 07:12:00,42.5,39.2,30.38,ESE,105,0.0,1.0,88,0.00,,CLR,0.00,VWS V14.01,2013-04-18 11:12:00,
2013-04-18 07:17:00,42.9,39.3,30.38,East,90,0.0,0.0,87,0.00,,CLR,0.00,VWS V14.01,2013-04-18 11:17:00,
2013-04-18 07:22:00,43.8,39.3,30.38,East,101,0.0,3.0,84,0.00,,CLR,0.00,VWS V14.01,2013-04-18 11:22:00,
2013-04-18 07:27:00,44.4,39.9,30.38,East,96,0.0,1.0,84,0.00,,CLR,0.00,VWS V14.01,2013-04-18 11:27:00,
2013-04-18 07:32:00,44.8,39.7,30.38,East,96,0.0,0.0,82,0.00,,CLR,0.00,VWS V14.01,2013-04-18 11:32:00,
2013-04-18 07:37:00,45.3,40.1,30.38,East,97,0.0,4.0,82,0.00,,CLR,0.00,VWS V14.01,2013-04-18 11:37:00,
2013-04-18 07:42:00,46.0,39.5,30.39,SE,128,1.0,2.0,78,0.00,,CLR,0.00,VWS V14.01,2013-04-18 11:42:00,
2013-04-18 07:47:00,46.6,39.5,30.38,ESE,113,1.0,3.0,76,0.00,,CLR,0.00,VWS V14.01,2013-04-18 11:47:00,
2013-04-18 07:52:00,47.3,39.1,30.38,ESE,108,0.0,4.0,73,0.00,,CLR,0.00,VWS V14.01,2013-04-18 11:52:00,
2013-04-18 07:57:00,47.9,39.3,30.38,ESE,111,1.0,6.0,72,0.00,,CLR,0.00,VWS V14.01,2013-04-18 11:57:00,
2013-04-18 08:02:00,48.4,39.1,30.38,ESE,111,2.0,4.0,70,0.00,,CLR,0.00,VWS V14.01,2013-04-18 12:02:00,
2013-04-18 08:07:00,48.8,39.1,30.38,East,97,2.0,4.0,69,0.00,,CLR,0.00,VWS V14.01,2013-04-18 12:07:00,
2013-04-18 08:12:00,49.2,39.1,30.38,East,99,4.0,4.0,68,0.00,,CLR,0.00,VWS V14.01,2013-04-18 12:12:00,
2013-04-18 08:17:00,49.7,38.8,30.38,SSW,193,2.0,5.0,66,0.00,,CLR,0.00,VWS V14.01,2013-04-18 12:17:00,
2013-04-18 08:22:00,50.1,38.8,30.38,ESE,111,6.0,8.0,65,0.00,,CLR,0.00,VWS V14.01,2013-04-18 12:22:00,
2013-04-18 08:27:00,50.2,38.5,30.38,East,98,2.0,7.0,64,0.00,,CLR,0.00,VWS V14.01,2013-04-18 12:27:00,
2013-04-18 08:32:00,50.5,38.0,30.38,ESE,110,4.0,7.0,62,0.00,,CLR,0.00,VWS V14.01,2013-04-18 12:32:00,
2013-04-18 08:37:00,50.9,38.8,30.38,SE,135,3.0,4.0,63,0.00,,CLR,0.00,VWS V14.01,2013-04-18 12:37:00,
2013-04-18 08:42:00,51.4,38.4,30.38,ENE,75,2.0,5.0,61,0.00,,CLR,0.00,VWS V14.01,2013-04-18 12:42:00,
2013-04-18 08:47:00,51.5,38.5,30.39,East,86,3.0,4.0,61,0.00,,CLR,0.00,VWS V14.01,2013-04-18 12:47:00,
2013-04-18 08:52:00,51.8,38.4,30.39,ESE,113,2.0,8.0,60,0.00,,CLR,0.00,VWS V14.01,2013-04-18 12:52:00,
2013-04-18 08:57:00,52.0,38.1,30.38,East,100,3.0,9.0,59,0.00,,CLR,0.00,VWS V14.01,2013-04-18 12:57:00,
2013-04-18 09:02:00,52.3,38.4,30.38,SE,125,4.0,4.0,59,0.00,,CLR,0.00,VWS V14.01,2013-04-18 13:02:00,
2013-04-18 09:07:00,52.7,38.8,30.38,East,89,1.0,5.0,59,0.00,,CLR,0.00,VWS V14.01,2013-04-18 13:07:00,
2013-04-18 09:12:00,53.0,38.6,30.38,West,266,1.0,7.0,58,0.00,,CLR,0.00,VWS V14.01,2013-04-18 13:12:00,
2013-04-18 09:17:00,53.3,37.6,30.38,SE,143,2.0,4.0,55,0.00,,CLR,0.00,VWS V14.01,2013-04-18 13:17:00,
2013-04-18 09:22:00,53.6,36.9,30.38,SE,136,3.0,6.0,53,0.00,,CLR,0.00,VWS V14.01,2013-04-18 13:22:00,
2013-04-18 09:27:00,53.7,36.0,30.38,SSE,159,3.0,8.0,51,0.00,,CLR,0.00,VWS V14.01,2013-04-18 13:27:00,
2013-04-18 09:32:00,53.6,35.9,30.38,SE,132,3.0,8.0,51,0.00,,CLR,0.00,VWS V14.01,2013-04-18 13:32:00,
2013-04-18 09:37:00,53.8,36.6,30.38,ESE,102,5.0,6.0,52,0.00,,CLR,0.00,VWS V14.01,2013-04-18 13:37:00,
2013-04-18 09:42:00,54.5,36.8,30.38,East,97,2.0,5.0,51,0.00,,CLR,0.00,VWS V14.01,2013-04-18 13:42:00,
2013-04-18 09:47:00,54.7,35.9,30.38,ESE,113,0.0,4.0,49,0.00,,CLR,0.00,VWS V14.01,2013-04-18 13:47:00,
2013-04-18 09:52:00,54.9,36.1,30.38,ESE,105,2.0,9.0,49,0.00,,CLR,0.00,VWS V14.01,2013-04-18 13:52:00,
2013-04-18 09:57:00,55.0,34.6,30.38,ESE,114,4.0,8.0,46,0.00,,CLR,0.00,VWS V14.01,2013-04-18 13:57:00,
2013-04-18 10:02:00,54.9,34.5,30.39,ESE,111,7.0,8.0,46,0.00,,CLR,0.00,VWS V14.01,2013-04-18 14:02:00,
2013-04-18 10:07:00,55.1,34.7,30.39,SSE,164,9.0,10.0,46,0.00,,CLR,0.00,VWS V14.01,2013-04-18 14:07:00,
2013-04-18 10:12:00,54.7,34.3,30.39,SW,222,2.0,7.0,46,0.00,,CLR,0.00,VWS V14.01,2013-04-18 14:12:00,
2013-04-18 10:17:00,54.9,35.1,30.38,South,185,8.0,8.0,47,0.00,,CLR,0.00,VWS V14.01,2013-04-18 14:17:00,
2013-04-18 10:22:00,55.0,34.6,30.39,ESE,107,10.0,10.0,46,0.00,,CLR,0.00,VWS V14.01,2013-04-18 14:22:00,
2013-04-18 10:27:00,54.6,34.2,30.39,SE,127,6.0,9.0,46,0.00,,CLR,0.00,VWS V14.01,2013-04-18 14:27:00,
2013-04-18 10:32:00,54.7,34.9,30.39,East,86,3.0,9.0,47,0.00,,CLR,0.00,VWS V14.01,2013-04-18 14:32:00,
2013-04-18 10:37:00,54.6,34.2,30.39,SE,128,2.0,9.0,46,0.00,,CLR,0.00,VWS V14.01,2013-04-18 14:37:00,
2013-04-18 10:42:00,54.4,34.6,30.38,SW,223,0.0,6.0,47,0.00,,CLR,0.00,VWS V14.01,2013-04-18 14:42:00,
2013-04-18 10:47:00,54.9,35.6,30.38,ESE,122,8.0,8.0,48,0.00,,CLR,0.00,VWS V14.01,2013-04-18 14:47:00,
2013-04-18 10:52:00,55.0,35.2,30.39,SSE,164,5.0,8.0,47,0.00,,CLR,0.00,VWS V14.01,2013-04-18 14:52:00,
2013-04-18 10:57:00,54.9,35.1,30.39,SE,146,3.0,10.0,47,0.00,,CLR,0.00,VWS V14.01,2013-04-18 14:57:00,
2013-04-18 11:02:00,54.9,34.5,30.39,SE,140,9.0,12.0,46,0.00,,CLR,0.00,VWS V14.01,2013-04-18 15:02:00,
2013-04-18 11:07:00,54.4,34.6,30.39,ESE,114,7.0,9.0,47,0.00,,OVC070,0.00,VWS V14.01,2013-04-18 15:07:00,
2013-04-18 11:12:00,54.4,34.6,30.39,South,187,5.0,7.0,47,0.00,,OVC070,0.00,VWS V14.01,2013-04-18 15:12:00,
2013-04-18 11:17:00,54.9,35.6,30.39,SE,139,6.0,6.0,48,0.00,,OVC070,0.00,VWS V14.01,2013-04-18 15:17:00,
2013-04-18 11:22:00,55.2,35.9,30.39,SE,137,3.0,10.0,48,0.00,,OVC070,0.00,VWS V14.01,2013-04-18 15:22:00,
2013-04-18 11:27:00,55.0,34.6,30.39,SE,135,8.0,8.0,46,0.00,,OVC070,0.00,VWS V14.01,2013-04-18 15:27:00,
2013-04-18 11:32:00,54.7,35.4,30.38,SE,134,3.0,6.0,48,0.00,,OVC070,0.00,VWS V14.01,2013-04-18 15:32:00,
2013-04-18 11:37:00,54.9,35.6,30.38,SE,131,3.0,7.0,48,0.00,,OVC070,0.00,VWS V14.01,2013-04-18 15:37:00,
2013-04-18 11:42:00,55.0,34.6,30.39,SSE,166,3.0,14.0,46,0.00,,OVC070,0.00,VWS V14.01,2013-04-18 15:42:00,
2013-04-18 11:47:00,55.1,34.2,30.39,SSE,153,3.0,9.0,45,0.00,,OVC070,0.00,VWS V14.01,2013-04-18 15:47:00,
2013-04-18 11:52:00,54.7,34.9,30.39,SE,138,3.0,12.0,47,0.00,,OVC070,0.00,VWS V14.01,2013-04-18 15:52:00,
2013-04-18 11:57:00,54.6,35.3,30.38,SSE,160,2.0,6.0,48,0.00,,OVC070,0.00,VWS V14.01,2013-04-18 15:57:00,
2013-04-18 12:02:00,55.3,36.0,30.38,ESE,110,3.0,6.0,48,0.00,,OVC070,0.00,VWS V14.01,2013-04-18 16:02:00,
2013-04-18 12:07:00,55.2,34.8,30.38,ENE,65,2.0,9.0,46,0.00,,BKN070,0.00,VWS V14.01,2013-04-18 16:07:00,
2013-04-18 12:12:00,55.0,34.6,30.38,ESE,119,5.0,9.0,46,0.00,,BKN070,0.00,VWS V14.01,2013-04-18 16:12:00,
2013-04-18 12:17:00,54.5,35.2,30.37,ESE,123,5.0,7.0,48,0.00,,BKN070,0.00,VWS V14.01,2013-04-18 16:17:00,
2013-04-18 12:22:00,54.6,35.3,30.37,SSE,154,0.0,6.0,48,0.00,,BKN070,0.00,VWS V14.01,2013-04-18 16:22:00,
2013-04-18 12:27:00,54.6,34.8,30.37,SE,140,6.0,9.0,47,0.00,,BKN070,0.00,VWS V14.01,2013-04-18 16:27:00,
2013-04-18 12:32:00,53.9,34.7,30.36,SE,124,6.0,9.0,48,0.00,,BKN070,0.00,VWS V14.01,2013-04-18 16:32:00,
2013-04-18 12:37:00,53.7,35.0,30.36,SE,133,9.0,13.0,49,0.00,,BKN070,0.00,VWS V14.01,2013-04-18 16:37:00,
2013-04-18 12:42:00,53.9,34.7,30.36,East,96,5.0,5.0,48,0.00,,BKN070,0.00,VWS V14.01,2013-04-18 16:42:00,
2013-04-18 12:47:00,53.6,34.4,30.36,East,99,6.0,9.0,48,0.00,,BKN070,0.00,VWS V14.01,2013-04-18 16:47:00,
2013-04-18 12:52:00,53.4,34.7,30.35,SSE,152,5.0,7.0,49,0.00,,BKN070,0.00,VWS V14.01,2013-04-18 16:52:00,
2013-04-18 12:57:00,53.6,34.9,30.35,SSW,205,4.0,12.0,49,0.00,,BKN070,0.00,VWS V14.01,2013-04-18 16:57:00,
2013-04-18 13:02:00,53.7,35.0,30.35,SSE,166,3.0,11.0,49,0.00,,BKN070,0.00,VWS V14.01,2013-04-18 17:02:00,
2013-04-18 13:07:00,53.7,35.5,30.36,East,89,5.0,11.0,50,0.00,,BKN070,0.00,VWS V14.01,2013-04-18 17:07:00,
2013-04-18 13:12:00,53.3,34.7,30.35,SSE,154,1.0,10.0,49,0.00,,BKN070,0.00,VWS V14.01,2013-04-18 17:12:00,
2013-04-18 13:17:00,53.3,35.7,30.36,ESE,115,5.0,10.0,51,0.00,,BKN070,0.00,VWS V14.01,2013-04-18 17:17:00,
2013-04-18 13:22:00,53.0,34.9,30.35,SSE,166,2.0,6.0,50,0.00,,BKN070,0.00,VWS V14.01,2013-04-18 17:22:00,
2013-04-18 13:27:00,53.2,35.6,30.36,ESE,115,6.0,12.0,51,0.00,,BKN070,0.00,VWS V14.01,2013-04-18 17:27:00,
2013-04-18 13:32:00,53.1,35.5,30.36,East,97,5.0,10.0,51,0.00,,BKN070,0.00,VWS V14.01,2013-04-18 17:32:00,
2013-04-18 13:37:00,53.3,35.7,30.36,ESE,118,7.0,8.0,51,0.00,,BKN070,0.00,VWS V14.01,2013-04-18 17:37:00,
2013-04-18 13:42:00,53.3,35.2,30.36,SSW,196,9.0,9.0,50,0.00,,BKN070,0.00,VWS V14.01,2013-04-18 17:42:00,
2013-04-18 13:47:00,53.2,35.6,30.36,ENE,73,3.0,5.0,51,0.00,,BKN070,0.00,VWS V14.01,2013-04-18 17:47:00,
2013-04-18 13:52:00,53.6,35.9,30.35,SE,140,7.0,10.0,51,0.00,,BKN070,0.00,VWS V14.01,2013-04-18 17:52:00,
2013-04-18 13:57:00,54.2,36.5,30.35,SSE,166,1.0,6.0,51,0.00,,BKN070,0.00,VWS V14.01,2013-04-18 17:57:00,
2013-04-18 14:02:00,54.5,36.8,30.35,ESE,103,1.0,9.0,51,0.00,,BKN070,0.00,VWS V14.01,2013-04-18 18:02:00,
2013-04-18 14:07:00,54.6,36.3,30.35,SE,126,7.0,10.0,50,0.00,,OVC070,0.00,VWS V14.01,2013-04-18 18:07:00,
2013-04-18 14:12:00,54.2,35.5,30.34,East,96,2.0,8.0,49,0.00,,OVC070,0.00,VWS V14.01,2013-04-18 18:12:00,
2013-04-18 14:17:00,53.9,35.7,30.34,East,96,2.0,11.0,50,0.00,,OVC070,0.00,VWS V14.01,2013-04-18 18:17:00,
2013-04-18 14:22:00,53.9,36.2,30.34,SSE,167,0.0,5.0,51,0.00,,OVC070,0.00,VWS V14.01,2013-04-18 18:22:00,
2013-04-18 14:27:00,53.7,36.0,30.34,SSE,151,5.0,6.0,51,0.00,,OVC070,0.00,VWS V14.01,2013-04-18 18:27:00,
2013-04-18 14:32:00,53.4,35.7,30.34,SE,131,8.0,8.0,51,0.00,,OVC070,0.00,VWS V14.01,2013-04-18 18:32:00,
2013-04-18 14:37:00,53.0,35.9,30.34,SSE,163,4.0,8.0,52,0.00,,OVC070,0.00,VWS V14.01,2013-04-18 18:37:00,
2013-04-18 14:42:00,52.6,35.5,30.34,NE,48,7.0,7.0,52,0.00,,OVC070,0.00,VWS V14.01,2013-04-18 18:42:00,
2013-04-18 14:47:00,52.4,35.8,30.34,ESE,118,1.0,6.0,53,0.00,,OVC070,0.00,VWS V14.01,2013-04-18 18:47:00,
2013-04-18 14:52:00,52.6,36.5,30.34,East,92,3.0,6.0,54,0.00,,OVC070,0.00,VWS V14.01,2013-04-18 18:52:00,
2013-04-18 14:57:00,52.4,36.3,30.33,ESE,122,4.0,5.0,54,0.00,,OVC070,0.00,VWS V14.01,2013-04-18 18:57:00,
2013-04-18 15:02:00,52.4,36.7,30.33,South,169,3.0,8.0,55,0.00,,OVC070,0.00,VWS V14.01,2013-04-18 19:02:00,
2013-04-18 15:07:00,52.7,37.0,30.33,ESE,113,3.0,9.0,55,0.00,,BKN060,0.00,VWS V14.01,2013-04-18 19:07:00,
2013-04-18 15:12:00,52.7,37.5,30.33,ESE,112,4.0,6.0,56,0.00,,BKN060,0.00,VWS V14.01,2013-04-18 19:12:00,
2013-04-18 15:17:00,52.6,36.9,30.33,South,186,2.0,8.0,55,0.00,,BKN060,0.00,VWS V14.01,2013-04-18 19:17:00,
2013-04-18 15:22:00,52.4,37.6,30.32,SE,124,4.0,7.0,57,0.00,,BKN060,0.00,VWS V14.01,2013-04-18 19:22:00,
2013-04-18 15:27:00,52.4,37.6,30.32,SE,144,3.0,7.0,57,0.00,,BKN060,0.00,VWS V14.01,2013-04-18 19:27:00,
2013-04-18 15:32:00,52.3,38.0,30.32,ESE,105,5.0,5.0,58,0.00,,BKN060,0.00,VWS V14.01,2013-04-18 19:32:00,
2013-04-18 15:37:00,52.7,38.3,30.32,SE,130,4.0,7.0,58,0.00,,BKN060,0.00,VWS V14.01,2013-04-18 19:37:00,
2013-04-18 15:42:00,52.3,38.0,30.32,SE,132,2.0,7.0,58,0.00,,BKN060,0.00,VWS V14.01,2013-04-18 19:42:00,
2013-04-18 15:47:00,52.3,38.4,30.32,ESE,111,3.0,8.0,59,0.00,,BKN060,0.00,VWS V14.01,2013-04-18 19:47:00,
2013-04-18 15:52:00,52.4,38.9,30.31,SSE,166,2.0,4.0,60,0.00,,BKN060,0.00,VWS V14.01,2013-04-18 19:52:00,
2013-04-18 15:57:00,52.6,38.7,30.31,ESE,108,3.0,8.0,59,0.00,,BKN060,0.00,VWS V14.01,2013-04-18 19:57:00,
2013-04-18 16:02:00,52.3,38.8,30.31,ESE,119,3.0,9.0,60,0.00,,OVC048,0.00,VWS V14.01,2013-04-18 20:02:00,
2013-04-18 16:08:00,52.3,39.3,30.31,SSE,149,3.0,12.0,61,0.00,,OVC048,0.00,VWS V14.01,2013-04-18 20:08:00,
2013-04-18 16:13:00,52.1,39.5,30.30,SSE,164,6.0,8.0,62,0.00,,OVC048,0.00,VWS V14.01,2013-04-18 20:13:00,
2013-04-18 16:18:00,51.8,39.2,30.30,ESE,103,0.0,8.0,62,0.00,,OVC048,0.00,VWS V14.01,2013-04-18 20:18:00,
2013-04-18 16:23:00,51.7,39.5,30.30,ESE,113,7.0,9.0,63,0.00,,OVC048,0.00,VWS V14.01,2013-04-18 20:23:00,
2013-04-18 16:28:00,51.6,39.8,30.30,SE,130,5.0,7.0,64,0.00,,OVC048,0.00,VWS V14.01,2013-04-18 20:28:00,
2013-04-18 16:33:00,51.5,39.7,30.29,ESE,115,5.0,6.0,64,0.00,,OVC048,0.00,VWS V14.01,2013-04-18 20:33:00,
2013-04-18 16:38:00,51.6,40.2,30.29,ENE,61,2.0,3.0,65,0.00,,OVC048,0.00,VWS V14.01,2013-04-18 20:38:00,
2013-04-18 16:43:00,51.9,40.9,30.30,South,169,1.0,3.0,66,0.00,,OVC048,0.00,VWS V14.01,2013-04-18 20:43:00,
2013-04-18 16:48:00,52.0,40.6,30.29,SE,136,0.0,4.0,65,0.00,,OVC048,0.00,VWS V14.01,2013-04-18 20:48:00,
2013-04-18 16:53:00,51.6,41.0,30.29,SE,134,2.0,7.0,67,0.00,,OVC048,0.00,VWS V14.01,2013-04-18 20:53:00,
2013-04-18 16:58:00,51.3,41.1,30.29,East,79,1.0,3.0,68,0.00,,OVC048,0.00,VWS V14.01,2013-04-18 20:58:00,
2013-04-18 17:03:00,51.0,41.2,30.29,ESE,115,2.0,5.0,69,0.00,,OVC048,0.00,VWS V14.01,2013-04-18 21:03:00,
2013-04-18 17:08:00,51.0,41.2,30.28,ESE,110,2.0,6.0,69,0.00,,OVC046,0.00,VWS V14.01,2013-04-18 21:08:00,
2013-04-18 17:13:00,50.8,41.4,30.28,ESE,104,3.0,6.0,70,0.00,,OVC046,0.00,VWS V14.01,2013-04-18 21:13:00,
2013-04-18 17:18:00,50.7,41.3,30.28,ESE,107,3.0,5.0,70,0.00,,OVC046,0.00,VWS V14.01,2013-04-18 21:18:00,
2013-04-18 17:23:00,50.7,42.0,30.28,ESE,113,1.0,2.0,72,0.00,,OVC046,0.00,VWS V14.01,2013-04-18 21:23:00,
2013-04-18 17:28:00,50.7,42.0,30.28,ESE,104,4.0,4.0,72,0.00,,OVC046,0.00,VWS V14.01,2013-04-18 21:28:00,
2013-04-18 17:33:00,50.5,42.2,30.27,SE,128,3.0,5.0,73,0.00,,OVC046,0.00,VWS V14.01,2013-04-18 21:33:00,
2013-04-18 17:38:00,50.4,42.4,30.27,ESE,122,5.0,7.0,74,0.00,,OVC046,0.00,VWS V14.01,2013-04-18 21:38:00,
2013-04-18 17:43:00,50.1,42.5,30.27,SSE,166,6.0,7.0,75,0.00,,OVC046,0.00,VWS V14.01,2013-04-18 21:43:00,
2013-04-18 17:48:00,50.1,42.5,30.27,ESE,116,1.0,4.0,75,0.00,,OVC046,0.00,VWS V14.01,2013-04-18 21:48:00,
2013-04-18 17:53:00,50.2,42.6,30.26,ESE,104,8.0,8.0,75,0.00,,OVC046,0.00,VWS V14.01,2013-04-18 21:53:00,
2013-04-18 17:58:00,50.3,43.0,30.26,SE,143,4.0,4.0,76,0.00,,OVC046,0.00,VWS V14.01,2013-04-18 21:58:00,
2013-04-18 18:03:00,50.1,43.2,30.26,ESE,118,5.0,6.0,77,0.00,,OVC042,0.00,VWS V14.01,2013-04-18 22:03:00,
2013-04-18 18:08:00,49.9,43.0,30.26,SSW,198,5.0,7.0,77,0.00,,OVC042,0.00,VWS V14.01,2013-04-18 22:08:00,
2013-04-18 18:13:00,49.8,43.2,30.26,SSE,159,4.0,6.0,78,0.00,,OVC042,0.00,VWS V14.01,2013-04-18 22:13:00,
2013-04-18 18:18:00,49.8,43.2,30.25,ESE,116,3.0,3.0,78,0.00,,OVC042,0.00,VWS V14.01,2013-04-18 22:18:00,
2013-04-18 18:23:00,49.9,43.3,30.26,East,98,1.0,4.0,78,0.00,,OVC042,0.00,VWS V14.01,2013-04-18 22:23:00,
2013-04-18 18:28:00,49.8,43.2,30.26,ESE,102,0.0,2.0,78,0.00,,OVC042,0.00,VWS V14.01,2013-04-18 22:28:00,
2013-04-18 18:33:00,49.8,43.9,30.26,East,98,1.0,3.0,80,0.00,,OVC042,0.00,VWS V14.01,2013-04-18 22:33:00,
2013-04-18 18:38:00,49.7,43.8,30.26,East,86,1.0,2.0,80,0.00,,OVC042,0.00,VWS V14.01,2013-04-18 22:38:00,
2013-04-18 18:43:00,49.5,43.9,30.26,ESE,112,5.0,6.0,81,0.00,,OVC042,0.00,VWS V14.01,2013-04-18 22:43:00,
2013-04-18 18:48:00,49.2,43.6,30.26,SE,136,3.0,4.0,81,0.00,,OVC042,0.00,VWS V14.01,2013-04-18 22:48:00,
2013-04-18 18:53:00,49.1,43.8,30.26,ESE,108,1.0,2.0,82,0.00,,OVC042,0.00,VWS V14.01,2013-04-18 22:53:00,
2013-04-18 18:58:00,49.1,44.2,30.25,SE,138,0.0,3.0,83,0.00,,OVC042,0.00,VWS V14.01,2013-04-18 22:58:00,
2013-04-18 19:03:00,48.9,44.0,30.25,SE,128,0.0,3.0,83,0.00,,OVC042,0.00,VWS V14.01,2013-04-18 23:03:00,
2013-04-18 19:08:00,48.9,44.0,30.25,SE,128,2.0,2.0,83,0.00,,OVC040,0.00,VWS V14.01,2013-04-18 23:08:00,
2013-04-18 19:13:00,48.9,44.3,30.25,ESE,121,1.0,2.0,84,0.00,,OVC040,0.00,VWS V14.01,2013-04-18 23:13:00,
2013-04-18 19:18:00,49.1,44.5,30.25,East,94,0.0,0.0,84,0.00,,OVC040,0.00,VWS V14.01,2013-04-18 23:18:00,
2013-04-18 19:23:00,49.0,44.4,30.25,SE,130,2.0,5.0,84,0.00,,OVC040,0.00,VWS V14.01,2013-04-18 23:23:00,
2013-04-18 19:28:00,48.9,44.6,30.25,SSE,154,2.0,3.0,85,0.00,,OVC040,0.00,VWS V14.01,2013-04-18 23:28:00,
2013-04-18 19:33:00,48.8,44.8,30.25,ESE,120,0.0,2.0,86,0.00,,OVC040,0.00,VWS V14.01,2013-04-18 23:33:00,
2013-04-18 19:38:00,48.8,44.8,30.25,SE,127,0.0,2.0,86,0.00,,OVC040,0.00,VWS V14.01,2013-04-18 23:38:00,
2013-04-18 19:43:00,48.8,44.8,30.25,SE,128,0.0,1.0,86,0.00,,OVC040,0.00,VWS V14.01,2013-04-18 23:43:00,
2013-04-18 19:48:00,48.6,44.9,30.25,East,98,2.0,5.0,87,0.00,,OVC040,0.00,VWS V14.01,2013-04-18 23:48:00,
2013-04-18 19:53:00,48.6,44.9,30.25,East,98,0.0,3.0,87,0.00,,OVC040,0.00,VWS V14.01,2013-04-18 23:53:00,
2013-04-18 19:58:00,48.6,44.9,30.25,East,98,2.0,2.0,87,0.00,,OVC040,0.00,VWS V14.01,2013-04-18 23:58:00,
2013-04-18 20:03:00,48.7,45.0,30.25,East,100,1.0,3.0,87,0.00,,OVC040,0.00,VWS V14.01,2013-04-19 00:03:00,
2013-04-18 20:08:00,48.7,45.0,30.25,ESE,111,1.0,5.0,87,0.00,,OVC018,0.00,VWS V14.01,2013-04-19 00:08:00,
2013-04-18 20:13:00,48.6,45.2,30.24,SE,124,3.0,6.0,88,0.00,,OVC018,0.00,VWS V14.01,2013-04-19 00:13:00,
2013-04-18 20:18:00,48.6,45.2,30.24,ESE,110,3.0,3.0,88,0.00,,OVC018,0.00,VWS V14.01,2013-04-19 00:18:00,
2013-04-18 20:23:00,48.5,45.4,30.24,ESE,110,3.0,3.0,89,0.00,,OVC018,0.00,VWS V14.01,2013-04-19 00:23:00,
2013-04-18 20:28:00,48.5,45.1,30.24,ESE,116,0.0,4.0,88,0.00,,OVC018,0.00,VWS V14.01,2013-04-19 00:28:00,
2013-04-18 20:33:00,48.5,45.1,30.24,ESE,114,0.0,4.0,88,0.00,,OVC018,0.00,VWS V14.01,2013-04-19 00:33:00,
2013-04-18 20:38:00,48.3,45.2,30.24,ESE,111,1.0,2.0,89,0.00,,OVC018,0.00,VWS V14.01,2013-04-19 00:38:00,
2013-04-18 20:42:00,48.3,45.2,30.23,East,101,3.0,5.0,89,0.00,,OVC018,0.00,VWS V14.01,2013-04-19 00:42:00,
2013-04-18 20:47:00,48.4,45.3,30.23,ESE,113,1.0,1.0,89,0.00,,OVC018,0.00,VWS V14.01,2013-04-19 00:47:00,
2013-04-18 20:52:00,48.3,45.2,30.23,ESE,109,3.0,4.0,89,0.00,,OVC018,0.00,VWS V14.01,2013-04-19 00:52:00,
2013-04-18 20:57:00,48.2,45.4,30.23,ESE,114,1.0,2.0,90,0.00,,OVC018,0.00,VWS V14.01,2013-04-19 00:57:00,
2013-04-18 21:02:00,48.2,45.4,30.22,ESE,113,1.0,4.0,90,0.00,,OVC018,0.00,VWS V14.01,2013-04-19 01:02:00,
2013-04-18 21:07:00,48.2,45.4,30.22,ESE,103,1.0,2.0,90,0.00,,OVC016,0.00,VWS V14.01,2013-04-19 01:07:00,
2013-04-18 21:12:00,48.2,45.7,30.22,ESE,103,0.0,4.0,91,0.00,,OVC016,0.00,VWS V14.01,2013-04-19 01:12:00,
2013-04-18 21:17:00,48.3,45.8,30.22,ESE,102,0.0,0.0,91,0.00,,OVC016,0.00,VWS V14.01,2013-04-19 01:17:00,
2013-04-18 21:22:00,48.3,45.8,30.22,ESE,103,4.0,4.0,91,0.00,,OVC016,0.00,VWS V14.01,2013-04-19 01:22:00,
2013-04-18 21:27:00,48.4,45.9,30.22,SE,131,1.0,2.0,91,0.00,,OVC016,0.00,VWS V14.01,2013-04-19 01:27:00,
2013-04-18 21:32:00,48.4,45.9,30.22,ESE,109,1.0,2.0,91,0.00,,OVC016,0.00,VWS V14.01,2013-04-19 01:32:00,
2013-04-18 21:37:00,48.3,46.1,30.22,ESE,113,3.0,5.0,92,0.00,,OVC016,0.00,VWS V14.01,2013-04-19 01:37:00,
2013-04-18 21:42:00,48.4,46.2,30.21,ESE,113,0.0,0.0,92,0.00,,OVC016,0.00,VWS V14.01,2013-04-19 01:42:00,
2013-04-18 21:47:00,48.5,46.0,30.22,East,95,1.0,5.0,91,0.00,,OVC016,0.00,VWS V14.01,2013-04-19 01:47:00,
2013-04-18 21:52:00,48.4,46.2,30.21,ESE,108,5.0,5.0,92,0.00,,OVC016,0.00,VWS V14.01,2013-04-19 01:52:00,
2013-04-18 21:57:00,48.4,46.2,30.20,East,94,0.0,4.0,92,0.00,,OVC016,0.00,VWS V14.01,2013-04-19 01:57:00,
2013-04-18 22:02:00,48.5,46.3,30.21,ESE,118,2.0,3.0,92,0.00,,OVC016,0.00,VWS V14.01,2013-04-19 02:02:00,
2013-04-18 22:07:00,48.5,46.3,30.20,East,94,0.0,4.0,92,0.00,,OVC014,0.00,VWS V14.01,2013-04-19 02:07:00,
2013-04-18 22:12:00,48.6,46.7,30.20,ESE,104,4.0,6.0,93,0.00,,OVC014,0.00,VWS V14.01,2013-04-19 02:12:00,
2013-04-18 22:17:00,48.6,46.7,30.20,SSE,154,2.0,3.0,93,0.00,,OVC014,0.00,VWS V14.01,2013-04-19 02:17:00,
2013-04-18 22:22:00,48.8,46.9,30.19,ENE,71,2.0,3.0,93,0.00,,OVC014,0.00,VWS V14.01,2013-04-19 02:22:00,
2013-04-18 22:27:00,48.8,47.2,30.18,East,93,2.0,6.0,94,0.00,,OVC014,0.00,VWS V14.01,2013-04-19 02:27:00,
2013-04-18 22:32:00,48.8,47.2,30.18,ESE,108,0.0,2.0,94,0.00,,OVC014,0.00,VWS V14.01,2013-04-19 02:32:00,
2013-04-18 22:37:00,48.8,46.9,30.17,ESE,115,2.0,3.0,93,0.00,,OVC014,0.00,VWS V14.01,2013-04-19 02:37:00,
2013-04-18 22:42:00,48.8,47.2,30.17,ESE,121,0.0,5.0,94,0.00,,OVC014,0.00,VWS V14.01,2013-04-19 02:42:00,
2013-04-18 22:47:00,48.9,47.2,30.17,SE,135,1.0,3.0,94,0.00,,OVC014,0.00,VWS V14.01,2013-04-19 02:47:00,
2013-04-18 22:52:00,48.9,47.2,30.16,SE,128,4.0,7.0,94,0.00,,OVC014,0.00,VWS V14.01,2013-04-19 02:52:00,
2013-04-18 22:57:00,48.9,47.5,30.16,ESE,106,3.0,5.0,95,0.00,,OVC014,0.00,VWS V14.01,2013-04-19 02:57:00,
2013-04-18 23:02:00,49.0,47.6,30.16,SE,139,4.0,7.0,95,0.00,,OVC012,0.00,VWS V14.01,2013-04-19 03:02:00,
2013-04-18 23:07:00,49.1,47.7,30.16,ESE,109,3.0,4.0,95,0.00,,OVC012,0.00,VWS V14.01,2013-04-19 03:07:00,
2013-04-18 23:12:00,49.1,48.0,30.16,ESE,122,2.0,3.0,96,0.00,,OVC012,0.00,VWS V14.01,2013-04-19 03:12:00,
2013-04-18 23:17:00,49.2,47.8,30.16,ESE,107,2.0,6.0,95,0.00,,OVC012,0.00,VWS V14.01,2013-04-19 03:17:00,
2013-04-18 23:22:00,49.3,48.2,30.15,SE,133,4.0,5.0,96,0.00,,OVC012,0.00,VWS V14.01,2013-04-19 03:22:00,
2013-04-18 23:27:00,49.4,48.3,30.15,ESE,111,2.0,7.0,96,0.00,,OVC012,0.00,VWS V14.01,2013-04-19 03:27:00,
2013-04-18 23:32:00,49.4,48.6,30.15,SSW,213,1.0,3.0,97,0.00,,OVC012,0.00,VWS V14.01,2013-04-19 03:32:00,
2013-04-18 23:37:00,49.3,48.5,30.15,ESE,105,2.0,6.0,97,0.00,,OVC012,0.00,VWS V14.01,2013-04-19 03:37:00,
2013-04-18 23:42:00,49.5,48.7,30.15,East,97,0.0,1.0,97,0.00,,OVC012,0.00,VWS V14.01,2013-04-19 03:42:00,
2013-04-18 23:47:00,49.5,49.0,30.15,ESE,107,1.0,4.0,98,0.00,,OVC012,0.00,VWS V14.01,2013-04-19 03:47:00,
2013-04-18 23:53:00,49.5,48.7,30.15,SE,139,1.0,3.0,97,0.00,,OVC012,0.00,VWS V14.01,2013-04-19 03:53:00,
2013-04-18 23:58:00,49.6,49.1,30.15,ESE,123,1.0,4.0,98,0.00,,OVC012,0.00,VWS V14.01,2013-04-19 03:58:00,